createdAt,value
2022-12-19T00:00:15.015Z,0
2022-12-19T00:00:51.881Z,0
2022-12-19T00:01:32.514Z,0
2022-12-19T00:02:13.029Z,0
2022-12-19T00:02:53.587Z,0
2022-12-19T00:03:34.072Z,0
2022-12-19T00:04:14.497Z,0
2022-12-19T00:09:52.822Z,0
2022-12-19T00:10:34.247Z,0
2022-12-19T00:11:14.789Z,0
2022-12-19T00:11:55.320Z,0
2022-12-19T00:12:35.845Z,0
2022-12-19T00:13:16.369Z,0
2022-12-19T00:13:56.903Z,0
2022-12-19T00:14:37.443Z,0
2022-12-19T00:15:18.144Z,0
2022-12-19T00:15:58.662Z,0
2022-12-19T00:18:37.011Z,0
2022-12-19T00:19:17.532Z,0
2022-12-19T00:19:58.032Z,0
2022-12-19T00:20:38.547Z,0
2022-12-19T00:24:41.682Z,0
2022-12-19T00:25:22.197Z,0
2022-12-19T00:26:03.424Z,0
2022-12-19T00:26:43.936Z,0
2022-12-19T00:27:24.456Z,0
2022-12-19T00:28:04.967Z,0
2022-12-19T00:28:45.475Z,0
2022-12-19T00:29:25.997Z,0
2022-12-19T00:30:06.506Z,0
2022-12-19T00:36:51.776Z,0
2022-12-19T00:37:32.302Z,0
2022-12-19T00:38:12.803Z,0
2022-12-19T00:38:53.338Z,0
2022-12-19T00:39:33.876Z,0
2022-12-19T00:40:14.402Z,0
2022-12-19T00:40:54.904Z,0
2022-12-19T00:43:33.333Z,0
2022-12-19T00:44:14.051Z,0
2022-12-19T00:44:54.941Z,0
2022-12-19T00:45:35.554Z,0
2022-12-19T00:46:16.200Z,0
2022-12-19T00:46:56.546Z,0
2022-12-19T00:47:37.087Z,0
2022-12-19T00:48:17.589Z,0
2022-12-19T00:55:43.285Z,0
2022-12-19T00:56:23.797Z,0
2022-12-19T00:57:04.297Z,0
2022-12-19T00:57:44.828Z,0
2022-12-19T00:58:25.319Z,0
2022-12-19T00:59:05.831Z,0
2022-12-19T00:59:46.332Z,0
2022-12-19T01:00:26.969Z,0
2022-12-19T01:01:07.468Z,0
2022-12-19T01:01:48.125Z,0
2022-12-19T01:09:28.562Z,0
2022-12-19T01:10:09.683Z,0
2022-12-19T01:10:51.680Z,0
2022-12-19T01:11:32.266Z,0
2022-12-19T01:13:46.839Z,0
2022-12-19T01:14:27.391Z,0
2022-12-19T01:15:07.952Z,0
2022-12-19T01:17:46.311Z,0
2022-12-19T01:18:26.690Z,0
2022-12-19T01:19:07.227Z,0
2022-12-19T01:19:47.773Z,0
2022-12-19T01:23:51.032Z,0
2022-12-19T01:24:31.548Z,0
2022-12-19T01:25:12.086Z,0
2022-12-19T01:25:52.648Z,0
2022-12-19T01:26:33.182Z,0
2022-12-19T01:27:13.688Z,0
2022-12-19T01:27:54.199Z,0
2022-12-19T01:28:35.398Z,0
2022-12-19T01:34:40.846Z,0
2022-12-19T01:35:22.284Z,0
2022-12-19T01:36:01.947Z,0
2022-12-19T01:36:42.465Z,0
2022-12-19T01:37:22.955Z,0
2022-12-19T01:38:07.679Z,0
2022-12-19T01:38:44.023Z,0
2022-12-19T01:39:24.537Z,0
2022-12-19T01:40:05.073Z,0
2022-12-19T01:40:45.585Z,0
2022-12-19T01:47:30.795Z,0
2022-12-19T01:48:11.320Z,0
2022-12-19T01:48:51.968Z,0
2022-12-19T01:49:32.356Z,0
2022-12-19T01:50:12.875Z,0
2022-12-19T01:50:58.851Z,0
2022-12-19T01:51:33.908Z,0
2022-12-19T01:52:14.891Z,0
2022-12-19T01:52:54.939Z,0
2022-12-19T01:53:35.466Z,0
2022-12-19T01:58:31.470Z,0
2022-12-19T01:59:12.026Z,0
2022-12-19T01:59:52.529Z,0
2022-12-19T02:00:33.052Z,0
2022-12-19T02:04:10.758Z,0
2022-12-19T02:04:51.134Z,0
2022-12-19T02:05:32.703Z,0
2022-12-19T02:06:13.223Z,0
2022-12-19T02:08:26.253Z,0
2022-12-19T02:09:06.777Z,0
2022-12-19T02:09:47.289Z,0
2022-12-19T02:10:27.799Z,0
2022-12-19T02:14:42.609Z,0
2022-12-19T02:15:23.109Z,0
2022-12-19T02:16:03.645Z,0
2022-12-19T02:16:44.181Z,0
2022-12-19T02:20:47.262Z,0
2022-12-19T02:21:27.798Z,0
2022-12-19T02:24:06.242Z,0
2022-12-19T02:24:46.772Z,0
2022-12-19T02:25:27.292Z,0
2022-12-19T02:26:07.797Z,0
2022-12-19T02:29:01.331Z,0
2022-12-19T02:29:41.847Z,0
2022-12-19T02:30:22.384Z,0
2022-12-19T02:31:05.706Z,0
2022-12-19T02:35:18.849Z,0
2022-12-19T02:35:59.248Z,0
2022-12-19T02:36:40.398Z,0
2022-12-19T02:37:20.344Z,0
2022-12-19T02:41:23.521Z,0
2022-12-19T02:42:04.917Z,0
2022-12-19T02:42:45.429Z,0
2022-12-19T02:45:28.400Z,0
2022-12-19T02:46:04.647Z,0
2022-12-19T02:46:45.131Z,0
2022-12-19T02:47:25.646Z,0
2022-12-19T02:51:28.793Z,0
2022-12-19T02:52:09.307Z,0
2022-12-19T02:52:49.911Z,0
2022-12-19T02:53:30.445Z,0
2022-12-19T02:54:10.959Z,0
2022-12-19T02:54:51.509Z,0
2022-12-19T02:55:32.022Z,0
2022-12-19T02:58:10.528Z,0
2022-12-19T02:58:51.080Z,0
2022-12-19T02:59:31.587Z,0
2022-12-19T03:00:12.135Z,0
2022-12-19T03:04:15.342Z,0
2022-12-19T03:04:55.875Z,0
2022-12-19T03:05:36.396Z,0
2022-12-19T03:06:17.046Z,0
2022-12-19T03:06:57.430Z,0
2022-12-19T03:07:37.941Z,0
2022-12-19T03:10:16.418Z,0
2022-12-19T03:10:56.955Z,0
2022-12-19T03:11:37.471Z,0
2022-12-19T03:12:18.839Z,0
2022-12-19T03:16:33.672Z,0
2022-12-19T03:17:14.214Z,0
2022-12-19T03:17:54.701Z,0
2022-12-19T03:18:35.220Z,0
2022-12-19T03:21:58.685Z,0
2022-12-19T03:22:39.081Z,0
2022-12-19T03:23:19.568Z,0
2022-12-19T03:24:00.110Z,0
2022-12-19T03:24:40.606Z,0
2022-12-19T03:25:21.133Z,0
2022-12-19T03:26:01.653Z,0
2022-12-19T03:26:42.170Z,0
2022-12-19T03:27:22.672Z,0
2022-12-19T03:28:03.223Z,0
2022-12-19T03:33:00.326Z,0
2022-12-19T03:33:40.874Z,0
2022-12-19T03:34:21.416Z,0
2022-12-19T03:35:01.927Z,0
2022-12-19T03:39:05.095Z,0
2022-12-19T03:39:45.633Z,0
2022-12-19T03:40:26.143Z,0
2022-12-19T03:41:07.357Z,0
2022-12-19T03:41:47.896Z,0
2022-12-19T03:42:28.411Z,0
2022-12-19T03:43:08.981Z,0
2022-12-19T03:43:49.508Z,0
2022-12-19T03:50:35.420Z,0
2022-12-19T03:51:15.941Z,0
2022-12-19T03:51:59.446Z,0
2022-12-19T03:52:37.241Z,0
2022-12-19T03:53:17.632Z,0
2022-12-19T03:53:58.169Z,0
2022-12-19T03:54:38.681Z,0
2022-12-19T03:55:19.224Z,0
2022-12-19T03:55:59.775Z,0
2022-12-19T04:02:46.128Z,0
2022-12-19T04:03:26.701Z,0
2022-12-19T04:04:07.177Z,0
2022-12-19T04:04:47.729Z,0
2022-12-19T04:05:28.778Z,0
2022-12-19T04:06:09.279Z,0
2022-12-19T04:08:47.899Z,0
2022-12-19T04:09:28.272Z,0
2022-12-19T04:10:08.810Z,0
2022-12-19T04:10:49.312Z,0
2022-12-19T04:15:45.566Z,0
2022-12-19T04:16:26.054Z,0
2022-12-19T04:17:06.571Z,0
2022-12-19T04:17:47.113Z,0
2022-12-19T04:21:50.301Z,0
2022-12-19T04:22:30.789Z,0
2022-12-19T04:23:11.300Z,0
2022-12-19T04:23:51.959Z,0
2022-12-19T04:24:32.366Z,0
2022-12-19T04:25:12.904Z,0
2022-12-19T04:25:53.416Z,0
2022-12-19T04:28:32.061Z,0
2022-12-19T04:29:12.602Z,0
2022-12-19T04:29:53.120Z,0
2022-12-19T04:30:36.431Z,0
2022-12-19T04:34:41.454Z,0
2022-12-19T04:35:17.365Z,0
2022-12-19T04:35:57.907Z,0
2022-12-19T04:36:40.360Z,0
2022-12-19T04:37:20.893Z,0
2022-12-19T04:38:01.418Z,0
2022-12-19T04:44:07.123Z,0
2022-12-19T04:44:47.648Z,0
2022-12-19T04:45:28.185Z,0
2022-12-19T04:46:08.779Z,0
2022-12-19T04:46:49.332Z,0
2022-12-19T04:47:29.819Z,0
2022-12-19T04:48:10.339Z,0
2022-12-19T04:48:50.871Z,0
2022-12-19T04:52:16.804Z,0
2022-12-19T04:52:57.394Z,0
2022-12-19T04:53:37.865Z,0
2022-12-19T04:54:18.415Z,0
2022-12-19T04:54:59.572Z,0
2022-12-19T04:55:40.901Z,0
2022-12-19T04:56:21.442Z,0
2022-12-19T05:03:06.985Z,0
2022-12-19T05:03:51.378Z,0
2022-12-19T05:04:27.909Z,0
2022-12-19T05:05:09.376Z,0
2022-12-19T05:05:49.922Z,0
2022-12-19T05:06:30.421Z,0
2022-12-19T05:07:10.928Z,0
2022-12-19T05:09:49.306Z,0
2022-12-19T05:10:29.953Z,0
2022-12-19T05:11:13.319Z,0
2022-12-19T05:11:50.999Z,0
2022-12-19T05:15:14.192Z,0
2022-12-19T05:15:54.784Z,0
2022-12-19T05:16:35.262Z,0
2022-12-19T05:17:17.649Z,0
2022-12-19T05:17:58.177Z,0
2022-12-19T05:18:38.686Z,0
2022-12-19T05:24:44.062Z,0
2022-12-19T05:25:24.585Z,0
2022-12-19T05:26:05.245Z,0
2022-12-19T05:26:45.674Z,0
2022-12-19T05:27:26.265Z,0
2022-12-19T05:28:06.774Z,0
2022-12-19T05:28:47.322Z,0
2022-12-19T05:29:27.868Z,0
2022-12-19T05:30:08.418Z,0
2022-12-19T05:34:13.951Z,0
2022-12-19T05:34:54.976Z,0
2022-12-19T05:37:35.321Z,0
2022-12-19T05:38:15.840Z,0
2022-12-19T05:38:56.362Z,0
2022-12-19T05:39:36.919Z,0
2022-12-19T05:41:49.739Z,0
2022-12-19T05:42:30.118Z,0
2022-12-19T05:43:10.634Z,0
2022-12-19T05:43:51.149Z,0
2022-12-19T05:47:56.582Z,0
2022-12-19T05:48:34.767Z,0
2022-12-19T05:49:15.274Z,0
2022-12-19T05:49:55.798Z,0
2022-12-19T05:50:36.297Z,0
2022-12-19T05:51:16.825Z,0
2022-12-19T05:53:55.628Z,0
2022-12-19T05:54:36.139Z,0
2022-12-19T05:55:16.655Z,0
2022-12-19T05:55:57.200Z,0
2022-12-19T05:59:20.552Z,0
2022-12-19T06:00:01.086Z,0
2022-12-19T06:02:39.335Z,0
2022-12-19T06:03:19.855Z,0
2022-12-19T06:04:00.320Z,0
2022-12-19T06:04:40.854Z,0
2022-12-19T06:08:04.113Z,0
2022-12-19T06:08:44.631Z,0
2022-12-19T06:09:25.143Z,0
2022-12-19T06:10:05.666Z,0
2022-12-19T06:10:46.181Z,0
2022-12-19T06:11:26.690Z,0
2022-12-19T06:14:04.956Z,0
2022-12-19T06:14:45.352Z,0
2022-12-19T06:15:26.540Z,0
2022-12-19T06:16:07.104Z,0
2022-12-19T06:19:00.610Z,0
2022-12-19T06:19:41.139Z,0
2022-12-19T06:20:21.669Z,0
2022-12-19T06:21:02.190Z,0
2022-12-19T06:25:18.688Z,0
2022-12-19T06:25:59.224Z,0
2022-12-19T06:26:39.739Z,0
2022-12-19T06:27:20.258Z,0
2022-12-19T06:30:15.186Z,0
2022-12-19T06:30:55.555Z,0
2022-12-19T06:31:36.099Z,0
2022-12-19T06:32:16.617Z,0
2022-12-19T06:36:19.756Z,0
2022-12-19T06:37:03.029Z,0
2022-12-19T06:37:40.757Z,0
2022-12-19T06:38:21.277Z,0
2022-12-19T06:39:01.803Z,0
2022-12-19T06:39:42.317Z,0
2022-12-19T06:40:22.855Z,0
2022-12-19T06:41:03.377Z,0
2022-12-19T06:41:43.929Z,0
2022-12-19T06:42:24.607Z,0
2022-12-19T06:48:41.802Z,0
2022-12-19T06:49:23.150Z,0
2022-12-19T06:50:03.721Z,0
2022-12-19T06:50:45.090Z,0
2022-12-19T06:52:58.305Z,0
2022-12-19T06:53:38.848Z,0
2022-12-19T06:54:19.401Z,0
2022-12-19T06:54:59.955Z,0
2022-12-19T06:59:56.089Z,0
2022-12-19T07:00:36.602Z,0
2022-12-19T07:01:17.425Z,0
2022-12-19T07:01:57.771Z,0
2022-12-19T07:04:10.418Z,0
2022-12-19T07:04:50.969Z,0
2022-12-19T07:05:31.491Z,0
2022-12-19T07:06:12.005Z,0
2022-12-19T07:10:30.720Z,0
2022-12-19T07:11:11.141Z,0
2022-12-19T07:11:51.680Z,0
2022-12-19T07:12:32.194Z,0
2022-12-19T07:13:12.723Z,0
2022-12-19T07:13:53.236Z,0
2022-12-19T07:14:33.817Z,0
2022-12-19T07:15:14.476Z,0
2022-12-19T07:15:54.887Z,0
2022-12-19T07:16:35.666Z,0
2022-12-19T07:17:15.945Z,0
2022-12-19T07:19:26.713Z,0
2022-12-19T07:25:02.434Z,5
2022-12-19T07:25:43.003Z,5
2022-12-19T07:26:23.532Z,5
2022-12-19T07:27:04.109Z,5
2022-12-19T07:30:38.754Z,5
2022-12-19T07:31:19.301Z,5
2022-12-19T07:32:00.564Z,5
2022-12-19T07:32:40.923Z,5
2022-12-19T07:35:34.453Z,10
2022-12-19T07:36:15.068Z,10
2022-12-19T07:36:55.607Z,10
2022-12-19T07:37:36.838Z,10
2022-12-19T07:42:32.733Z,10
2022-12-19T07:43:12.546Z,10
2022-12-19T07:43:53.049Z,10
2022-12-19T07:44:33.564Z,10
2022-12-19T07:48:36.736Z,10
2022-12-19T07:49:22.400Z,10
2022-12-19T07:49:57.790Z,10
2022-12-19T07:50:38.292Z,10
2022-12-19T07:51:18.889Z,15
2022-12-19T07:51:59.405Z,15
2022-12-19T07:52:39.937Z,15
2022-12-19T07:53:20.439Z,15
2022-12-19T07:54:00.943Z,15
2022-12-19T07:54:41.480Z,15
2022-12-19T08:00:07.133Z,25
2022-12-19T08:00:48.604Z,25
2022-12-19T08:01:29.589Z,25
2022-12-19T08:02:09.771Z,30
2022-12-19T08:02:50.436Z,30
2022-12-19T08:05:28.614Z,35
2022-12-19T08:06:09.128Z,30
2022-12-19T08:06:49.665Z,30
2022-12-19T08:07:30.181Z,30
2022-12-19T08:10:42.921Z,35
2022-12-19T08:11:24.322Z,35
2022-12-19T08:12:06.421Z,35
2022-12-19T08:12:46.926Z,35
2022-12-19T08:14:59.957Z,40
2022-12-19T08:15:40.509Z,40
2022-12-19T08:16:21.073Z,40
2022-12-19T08:21:04.734Z,45
2022-12-19T08:21:45.261Z,45
2022-12-19T08:22:25.912Z,45
2022-12-19T08:23:06.315Z,45
2022-12-19T08:23:46.882Z,45
2022-12-19T08:24:27.392Z,45
2022-12-19T08:25:07.903Z,45
2022-12-19T08:25:48.434Z,45
2022-12-19T08:26:32.474Z,45
2022-12-19T08:27:09.537Z,45
2022-12-19T08:33:15.048Z,40
2022-12-19T08:33:55.746Z,40
2022-12-19T08:34:36.110Z,35
2022-12-19T08:35:16.677Z,35
2022-12-19T08:35:57.187Z,35
2022-12-19T08:36:37.715Z,35
2022-12-19T08:37:18.284Z,35
2022-12-19T08:37:58.755Z,35
2022-12-19T08:38:39.305Z,35
2022-12-19T08:43:34.230Z,45
2022-12-19T08:44:14.824Z,45
2022-12-19T08:44:55.301Z,50
2022-12-19T08:45:35.865Z,50
2022-12-19T08:47:48.913Z,55
2022-12-19T08:48:29.430Z,55
2022-12-19T08:49:10.138Z,55
2022-12-19T08:49:50.537Z,60
2022-12-19T08:52:33.502Z,65
2022-12-19T08:53:14.063Z,70
2022-12-19T08:53:54.588Z,70
2022-12-19T08:54:35.151Z,65
2022-12-19T08:55:15.665Z,70
2022-12-19T08:55:56.249Z,70
2022-12-19T08:56:36.827Z,70
2022-12-19T08:57:17.453Z,70
2022-12-19T09:02:43.673Z,85
2022-12-19T09:03:24.187Z,85
2022-12-19T09:05:59.041Z,90
2022-12-19T09:06:22.448Z,95
2022-12-19T09:07:02.935Z,95
2022-12-19T09:07:43.447Z,95
2022-12-19T09:11:48.085Z,95
2022-12-19T09:12:27.158Z,95
2022-12-19T09:13:07.700Z,95
2022-12-19T09:13:49.086Z,95
2022-12-19T09:14:29.637Z,95
2022-12-19T09:15:10.171Z,95
2022-12-19T09:15:50.689Z,95
2022-12-19T09:16:31.225Z,95
2022-12-19T09:24:08.269Z,115
2022-12-19T09:24:48.781Z,120
2022-12-19T09:25:29.303Z,120
2022-12-19T09:26:09.812Z,120
2022-12-19T09:28:53.637Z,120
2022-12-19T09:29:35.629Z,120
2022-12-19T09:30:14.688Z,120
2022-12-19T09:30:55.267Z,120
2022-12-19T09:31:35.754Z,125
2022-12-19T09:32:16.306Z,125
2022-12-19T09:32:56.837Z,125
2022-12-19T09:33:43.046Z,125
2022-12-19T09:37:59.823Z,140
2022-12-19T09:38:36.576Z,140
2022-12-19T09:39:15.519Z,140
2022-12-19T09:39:58.844Z,145
2022-12-19T09:43:30.449Z,135
2022-12-19T09:44:10.957Z,130
2022-12-19T09:44:51.459Z,130
2022-12-19T09:45:33.068Z,135
2022-12-19T09:49:35.137Z,130
2022-12-19T09:50:15.653Z,130
2022-12-19T09:50:56.171Z,130
2022-12-19T09:51:36.666Z,135
2022-12-19T09:52:17.252Z,135
2022-12-19T09:52:57.907Z,135
2022-12-19T09:53:38.339Z,135
2022-12-19T09:54:18.830Z,135
2022-12-19T09:54:59.513Z,140
2022-12-19T09:55:40.024Z,145
2022-12-19T10:02:26.533Z,200
2022-12-19T10:03:07.077Z,205
2022-12-19T10:03:47.459Z,210
2022-12-19T10:04:27.912Z,210
2022-12-19T10:05:10.656Z,210
2022-12-19T10:06:00.381Z,210
2022-12-19T10:07:16.653Z,210
2022-12-19T10:14:47.208Z,185
2022-12-19T10:15:27.727Z,180
2022-12-19T10:16:08.294Z,180
2022-12-19T10:17:08.804Z,180
2022-12-19T10:22:31.530Z,170
2022-12-19T10:23:15.878Z,165
2022-12-19T10:23:59.593Z,165
2022-12-19T10:26:32.199Z,160
2022-12-19T10:27:13.709Z,160
2022-12-19T10:27:59.005Z,160
2022-12-19T10:28:38.525Z,160
2022-12-19T10:30:51.380Z,165
2022-12-19T10:31:31.893Z,165
2022-12-19T10:32:12.421Z,160
2022-12-19T10:32:52.932Z,160
2022-12-19T10:37:25.526Z,160
2022-12-19T10:37:50.092Z,160
2022-12-19T10:38:30.350Z,165
2022-12-19T10:39:11.205Z,165
2022-12-19T10:41:49.500Z,170
2022-12-19T10:42:31.013Z,180
2022-12-19T10:43:15.413Z,175
2022-12-19T10:43:52.891Z,185
2022-12-19T10:46:06.437Z,185
2022-12-19T10:46:46.968Z,185
2022-12-19T10:47:27.476Z,190
2022-12-19T10:48:08.022Z,190
2022-12-19T10:50:23.245Z,190
2022-12-19T10:51:06.683Z,185
2022-12-19T10:51:49.670Z,180
2022-12-19T10:52:32.679Z,175
2022-12-19T10:53:13.175Z,170
2022-12-19T10:56:35.183Z,160
2022-12-19T10:57:09.704Z,160
2022-12-19T10:57:50.298Z,155
2022-12-19T10:58:30.812Z,155
2022-12-19T11:01:13.849Z,150
2022-12-19T11:02:00.610Z,145
2022-12-19T11:02:35.031Z,145
2022-12-19T11:03:16.900Z,150
2022-12-19T11:03:55.952Z,150
2022-12-19T11:04:36.549Z,155
2022-12-19T11:07:17.575Z,165
2022-12-19T11:07:58.117Z,165
2022-12-19T11:08:39.555Z,165
2022-12-19T11:12:53.158Z,170
2022-12-19T11:13:23.175Z,170
2022-12-19T11:15:24.880Z,175
2022-12-19T11:16:17.212Z,175
2022-12-19T11:19:34.648Z,180
2022-12-19T11:20:12.368Z,175
2022-12-19T11:21:41.146Z,175
2022-12-19T11:23:19.743Z,170
2022-12-19T11:29:15.851Z,160
2022-12-19T11:29:28.045Z,160
2022-12-19T11:29:28.183Z,160
2022-12-19T11:29:28.748Z,155
2022-12-19T11:29:29.207Z,160
2022-12-19T11:29:29.279Z,160
2022-12-19T11:29:29.392Z,150
2022-12-19T11:29:29.508Z,160
2022-12-19T11:30:22.454Z,155
2022-12-19T11:30:23.076Z,150
2022-12-19T11:35:45.004Z,135
2022-12-19T11:36:26.435Z,135
2022-12-19T11:37:06.958Z,135
2022-12-19T11:39:45.937Z,130
2022-12-19T11:40:26.436Z,130
2022-12-19T11:41:06.956Z,135
2022-12-19T11:41:47.605Z,135
2022-12-19T11:45:11.001Z,140
2022-12-19T11:45:51.519Z,145
2022-12-19T11:46:32.028Z,145
2022-12-19T11:47:13.237Z,150
2022-12-19T11:47:53.730Z,150
2022-12-19T11:48:34.243Z,150
2022-12-19T11:49:14.764Z,150
2022-12-19T11:49:55.276Z,155
2022-12-19T11:54:09.912Z,170
2022-12-19T11:54:50.469Z,170
2022-12-19T11:55:31.006Z,175
2022-12-19T11:56:16.100Z,170
2022-12-19T11:59:34.818Z,160
2022-12-19T12:00:15.326Z,160
2022-12-19T12:00:56.349Z,160
2022-12-19T12:01:36.939Z,165
2022-12-19T12:04:15.513Z,155
2022-12-19T12:04:55.994Z,155
2022-12-19T12:05:36.501Z,155
2022-12-19T12:06:18.692Z,150
2022-12-19T12:09:48.484Z,150
2022-12-19T12:11:55.207Z,150
2022-12-19T12:12:24.139Z,150
2022-12-19T12:14:37.197Z,150
2022-12-19T12:17:09.193Z,150
2022-12-19T12:18:37.617Z,145
2022-12-19T12:20:29.549Z,145
2022-12-19T12:21:15.990Z,145
2022-12-19T12:24:45.560Z,155
2022-12-19T12:30:04.655Z,155
2022-12-19T12:30:11.709Z,155
2022-12-19T12:30:26.195Z,150
2022-12-19T12:31:34.331Z,135
2022-12-19T12:31:35.948Z,135
2022-12-19T12:31:36.878Z,135
2022-12-19T12:31:36.899Z,135
2022-12-19T12:31:36.906Z,135
2022-12-19T12:31:37.496Z,135
2022-12-19T12:31:37.897Z,140
2022-12-19T12:35:25.918Z,140
2022-12-19T12:35:26.011Z,135
2022-12-19T12:35:28.005Z,135
2022-12-19T12:35:28.158Z,140
2022-12-19T12:35:28.487Z,135
2022-12-19T12:37:45.934Z,140
2022-12-19T12:43:24.274Z,145
2022-12-19T12:44:04.812Z,145
2022-12-19T12:44:46.279Z,145
2022-12-19T12:45:25.941Z,145
2022-12-19T12:46:06.530Z,145
2022-12-19T12:46:47.039Z,145
2022-12-19T12:47:27.564Z,150
2022-12-19T12:48:08.125Z,150
2022-12-19T12:48:48.674Z,155
2022-12-19T12:49:29.215Z,155
2022-12-19T12:53:44.825Z,155
2022-12-19T12:54:25.345Z,155
2022-12-19T12:55:05.910Z,155
2022-12-19T12:55:46.455Z,155
2022-12-19T12:58:41.576Z,145
2022-12-19T12:59:23.135Z,145
2022-12-19T13:00:03.652Z,140
2022-12-19T13:00:45.799Z,140
2022-12-19T13:01:26.462Z,135
2022-12-19T13:02:06.923Z,135
2022-12-19T13:04:49.369Z,135
2022-12-19T13:05:25.981Z,130
2022-12-19T13:06:06.505Z,130
2022-12-19T13:06:47.048Z,125
2022-12-19T13:09:20.447Z,110
2022-12-19T13:10:00.960Z,110
2022-12-19T13:10:41.515Z,105
2022-12-19T13:11:22.086Z,105
2022-12-19T13:14:15.689Z,100
2022-12-19T13:14:56.200Z,100
2022-12-19T13:15:36.734Z,100
2022-12-19T13:16:17.391Z,100
2022-12-19T13:19:16.816Z,95
2022-12-19T13:19:51.904Z,95
2022-12-19T13:20:34.317Z,95
2022-12-19T13:21:14.848Z,95
2022-12-19T13:24:49.012Z,90
2022-12-19T13:25:29.569Z,90
2022-12-19T13:26:12.628Z,90
2022-12-19T13:26:50.658Z,90
2022-12-19T13:31:23.557Z,90
2022-12-19T13:32:03.101Z,90
2022-12-19T13:32:43.555Z,90
2022-12-19T13:33:24.121Z,90
2022-12-19T13:39:52.681Z,90
2022-12-19T13:39:53.241Z,85
2022-12-19T13:39:53.339Z,85
2022-12-19T13:39:53.637Z,85
2022-12-19T13:40:12.431Z,85
2022-12-19T13:40:51.627Z,85
2022-12-19T13:47:37.094Z,80
2022-12-19T13:50:15.536Z,75
2022-12-19T13:50:56.051Z,75
2022-12-19T13:51:36.600Z,70
2022-12-19T13:52:17.153Z,70
2022-12-19T13:54:20.653Z,65
2022-12-19T13:55:01.192Z,65
2022-12-19T13:55:42.326Z,65
2022-12-19T13:56:22.853Z,65
2022-12-19T13:57:09.497Z,65
2022-12-19T13:57:43.893Z,65
2022-12-19T13:58:28.711Z,65
2022-12-19T13:59:04.928Z,65
2022-12-19T14:06:41.981Z,60
2022-12-19T14:07:26.070Z,60
2022-12-19T14:08:03.049Z,55
2022-12-19T14:08:45.342Z,55
2022-12-19T14:11:29.224Z,50
2022-12-19T14:12:05.026Z,50
2022-12-19T14:13:35.704Z,50
2022-12-19T14:13:46.139Z,50
2022-12-19T14:14:01.796Z,50
2022-12-19T14:14:33.873Z,50
2022-12-19T14:18:56.158Z,50
2022-12-19T14:19:37.228Z,50
2022-12-19T14:22:02.898Z,50
2022-12-19T14:22:02.944Z,50
2022-12-19T14:23:00.747Z,45
2022-12-19T14:23:43.188Z,45
2022-12-19T14:24:21.786Z,40
2022-12-19T14:25:45.255Z,40
2022-12-19T14:28:16.521Z,40
2022-12-19T14:28:16.533Z,40
2022-12-19T14:28:16.634Z,40
2022-12-19T14:28:27.486Z,40
2022-12-19T14:34:11.436Z,40
2022-12-19T14:36:05.555Z,40
2022-12-19T14:36:05.673Z,40
2022-12-19T14:36:09.441Z,40
2022-12-19T14:36:33.619Z,40
2022-12-19T14:39:21.585Z,40
2022-12-19T14:39:42.439Z,40
2022-12-19T14:40:22.982Z,40
2022-12-19T14:41:07.769Z,40
2022-12-19T14:49:40.577Z,35
2022-12-19T14:49:58.586Z,35
2022-12-19T14:50:16.622Z,35
2022-12-19T14:50:25.602Z,35
2022-12-19T14:50:59.755Z,35
2022-12-19T14:51:00.433Z,30
2022-12-19T14:51:43.282Z,35
2022-12-19T14:52:08.077Z,30
2022-12-19T14:53:52.849Z,30
2022-12-19T14:54:20.277Z,30
2022-12-19T14:57:25.217Z,25
2022-12-19T14:58:51.724Z,20
2022-12-19T14:58:52.010Z,20
2022-12-19T14:59:18.429Z,20
2022-12-19T14:59:58.981Z,20
2022-12-19T15:00:51.007Z,20
2022-12-19T15:01:23.244Z,20
2022-12-19T15:02:01.598Z,20
2022-12-19T15:08:18.614Z,15
2022-12-19T15:10:07.826Z,10
2022-12-19T15:11:02.233Z,10
2022-12-19T15:12:56.578Z,10
2022-12-19T15:14:04.292Z,10
2022-12-19T15:14:46.523Z,10
2022-12-19T15:14:50.019Z,10
2022-12-19T15:17:08.697Z,5
2022-12-19T15:17:49.200Z,5
2022-12-19T15:18:29.768Z,5
2022-12-19T15:19:10.869Z,5
2022-12-19T15:19:51.386Z,5
2022-12-19T15:20:31.927Z,5
2022-12-19T15:21:13.216Z,5
2022-12-19T15:21:53.619Z,5
2022-12-19T15:28:50.827Z,0
2022-12-19T15:29:31.347Z,0
2022-12-19T15:30:13.445Z,0
2022-12-19T15:30:54.030Z,0
2022-12-19T15:33:09.408Z,0
2022-12-19T15:34:36.124Z,0
2022-12-19T15:35:11.015Z,0
2022-12-19T15:37:53.668Z,0
2022-12-19T15:38:34.193Z,0
2022-12-19T15:39:15.291Z,0
2022-12-19T15:39:55.775Z,0
2022-12-19T15:40:36.313Z,0
2022-12-19T15:41:17.690Z,0
2022-12-19T15:48:43.633Z,0
2022-12-19T15:49:24.185Z,0
2022-12-19T15:50:04.709Z,0
2022-12-19T15:50:45.239Z,0
2022-12-19T15:51:26.747Z,0
2022-12-19T15:52:07.235Z,0
2022-12-19T15:52:47.765Z,0
2022-12-19T15:59:37.171Z,0
2022-12-19T16:00:14.174Z,0
2022-12-19T16:00:54.642Z,0
2022-12-19T16:01:35.242Z,0
2022-12-19T16:02:16.062Z,0
2022-12-19T16:04:59.905Z,0
2022-12-19T16:05:34.752Z,0
2022-12-19T16:06:15.209Z,0
2022-12-19T16:06:55.723Z,0
2022-12-19T16:12:11.960Z,0
2022-12-19T16:12:53.758Z,0
2022-12-19T16:13:34.295Z,0
2022-12-19T16:14:14.850Z,0
2022-12-19T16:16:17.212Z,0
2022-12-19T16:16:57.747Z,0
2022-12-19T16:17:38.215Z,0
2022-12-19T16:18:18.739Z,0
2022-12-19T16:18:59.231Z,0
2022-12-19T16:19:39.757Z,0
2022-12-19T16:20:20.263Z,0
2022-12-19T16:21:00.817Z,0
2022-12-19T16:21:41.330Z,0
2022-12-19T16:27:46.631Z,0
2022-12-19T16:28:27.158Z,0
2022-12-19T16:29:07.679Z,0
2022-12-19T16:29:48.181Z,0
2022-12-19T16:30:28.698Z,0
2022-12-19T16:31:09.288Z,0
2022-12-19T16:33:47.905Z,0
2022-12-19T16:34:28.416Z,0
2022-12-19T16:35:08.980Z,0
2022-12-19T16:36:06.415Z,0
2022-12-19T16:39:52.675Z,0
2022-12-19T16:40:33.207Z,0
2022-12-19T16:41:13.749Z,0
2022-12-19T16:41:54.270Z,0
2022-12-19T16:42:34.812Z,0
2022-12-19T16:43:15.329Z,0
2022-12-19T16:43:55.847Z,0
2022-12-19T16:44:36.363Z,0
2022-12-19T16:45:16.879Z,0
2022-12-19T16:46:01.020Z,0
2022-12-19T16:51:22.481Z,0
2022-12-19T16:52:03.008Z,0
2022-12-19T16:52:43.591Z,0
2022-12-19T16:53:24.164Z,0
2022-12-19T16:54:04.729Z,0
2022-12-19T16:54:45.193Z,0
2022-12-19T16:55:25.716Z,0
2022-12-19T16:56:06.247Z,0
2022-12-19T16:56:46.757Z,0
2022-12-19T16:57:27.289Z,0
2022-12-19T17:04:12.544Z,0
2022-12-19T17:04:54.176Z,0
2022-12-19T17:05:34.395Z,0
2022-12-19T17:06:14.918Z,0
2022-12-19T17:06:55.436Z,0
2022-12-19T17:07:35.953Z,0
2022-12-19T17:08:16.461Z,0
2022-12-19T17:08:57.008Z,0
2022-12-19T17:16:09.875Z,0
2022-12-19T17:16:55.245Z,0
2022-12-19T17:17:41.231Z,0
2022-12-19T17:18:25.397Z,0
2022-12-19T17:19:05.742Z,0
2022-12-19T17:19:47.729Z,0
2022-12-19T17:21:56.645Z,0
2022-12-19T17:23:23.387Z,0
2022-12-19T17:24:56.666Z,0
2022-12-19T17:26:23.215Z,0
2022-12-19T17:27:09.215Z,0
2022-12-19T17:28:37.443Z,0
2022-12-19T17:30:43.155Z,0
2022-12-19T17:31:26.614Z,0
2022-12-19T17:33:34.435Z,0
2022-12-19T17:35:03.412Z,0
2022-12-19T17:35:46.200Z,0
2022-12-19T17:36:31.301Z,0
2022-12-19T17:37:53.931Z,0
2022-12-19T17:38:37.859Z,0
2022-12-19T17:40:45.295Z,0
2022-12-19T17:43:34.568Z,0
2022-12-19T17:44:20.725Z,0
2022-12-19T17:45:44.313Z,0
2022-12-19T17:46:28.219Z,0
2022-12-19T17:48:02.192Z,0
2022-12-19T17:48:36.794Z,0
2022-12-19T17:49:25.706Z,0
2022-12-19T17:50:13.649Z,0
2022-12-19T17:50:57.661Z,0
2022-12-19T17:53:05.219Z,0
2022-12-19T17:55:53.298Z,0
2022-12-19T17:56:35.788Z,0
2022-12-19T17:58:04.135Z,0
2022-12-19T17:58:45.250Z,0
2022-12-19T17:59:27.181Z,0
2022-12-19T18:00:58.314Z,0
2022-12-19T18:02:24.757Z,0
2022-12-19T18:03:05.869Z,0
2022-12-19T18:04:35.648Z,0
2022-12-19T18:07:05.894Z,0
2022-12-19T18:07:46.436Z,0
2022-12-19T18:08:26.955Z,0
2022-12-19T18:09:07.483Z,0
2022-12-19T18:13:44.855Z,0
2022-12-19T18:14:25.366Z,0
2022-12-19T18:15:05.883Z,0
2022-12-19T18:15:46.461Z,0
2022-12-19T18:19:49.640Z,0
2022-12-19T18:20:32.097Z,0
2022-12-19T18:21:10.675Z,0
2022-12-19T18:21:51.194Z,0
2022-12-19T18:22:31.704Z,0
2022-12-19T18:23:12.227Z,0
2022-12-19T18:23:52.777Z,0
2022-12-19T18:24:33.253Z,0
2022-12-19T18:25:13.789Z,0
2022-12-19T18:25:59.402Z,0
2022-12-19T18:28:52.802Z,0
2022-12-19T18:29:34.971Z,0
2022-12-19T18:30:15.489Z,0
2022-12-19T18:30:57.725Z,0
2022-12-19T18:33:31.527Z,0
2022-12-19T18:34:12.057Z,0
2022-12-19T18:34:52.585Z,0
2022-12-19T18:35:33.113Z,0
2022-12-19T18:39:36.272Z,0
2022-12-19T18:40:21.115Z,0
2022-12-19T18:40:57.303Z,0
2022-12-19T18:41:37.841Z,0
2022-12-19T18:42:18.368Z,0
2022-12-19T18:42:58.898Z,0
2022-12-19T18:43:39.428Z,0